createdAt,value
2018-08-04T00:02:32.981Z,26.70
2018-08-04T00:07:37.295Z,26.63
2018-08-04T00:12:41.028Z,26.63
2018-08-04T00:17:44.874Z,26.60
2018-08-04T00:22:48.872Z,26.54
2018-08-04T00:27:52.389Z,26.55
2018-08-04T00:32:56.142Z,26.57
2018-08-04T00:37:59.735Z,26.57
2018-08-04T00:43:03.325Z,26.54
2018-08-04T00:48:06.852Z,26.52
2018-08-04T00:53:10.406Z,26.47
2018-08-04T00:58:14.040Z,26.45
2018-08-04T01:03:17.954Z,26.45
2018-08-04T01:08:21.834Z,26.44
2018-08-04T01:13:25.670Z,26.42
2018-08-04T01:18:30.114Z,26.40
2018-08-04T01:23:33.939Z,26.34
2018-08-04T01:28:37.549Z,26.30
2018-08-04T01:33:41.129Z,26.27
2018-08-04T01:38:46.807Z,26.24
2018-08-04T01:43:50.321Z,26.26
2018-08-04T01:48:54.084Z,26.22
2018-08-04T01:53:57.777Z,26.20
2018-08-04T01:59:01.367Z,26.19
2018-08-04T02:04:04.925Z,26.15
2018-08-04T02:09:10.381Z,26.09
2018-08-04T02:14:14.441Z,25.98
2018-08-04T02:19:18.002Z,25.90
2018-08-04T02:24:21.561Z,25.87
2018-08-04T02:29:25.234Z,25.87
2018-08-04T02:34:28.751Z,25.80
2018-08-04T02:39:32.497Z,25.74
2018-08-04T02:44:36.812Z,25.58
2018-08-04T02:49:40.358Z,25.48
2018-08-04T02:54:43.928Z,25.45
2018-08-04T02:59:47.501Z,25.37
2018-08-04T03:04:51.028Z,25.35
2018-08-04T03:09:54.568Z,25.15
2018-08-04T03:14:58.106Z,24.92
2018-08-04T03:20:03.895Z,24.76
2018-08-04T03:25:08.008Z,24.92
2018-08-04T03:30:14.346Z,24.85
2018-08-04T03:35:18.075Z,24.63
2018-08-04T03:40:22.985Z,24.46
2018-08-04T03:45:26.602Z,24.59
2018-08-04T03:50:30.207Z,24.62
2018-08-04T03:55:33.769Z,24.35
2018-08-04T04:00:37.344Z,24.31
2018-08-04T04:05:41.269Z,24.44
2018-08-04T04:10:44.882Z,24.46
2018-08-04T04:15:48.473Z,24.41
2018-08-04T04:20:51.985Z,24.40
2018-08-04T04:25:55.524Z,24.32
2018-08-04T04:30:59.172Z,24.38
2018-08-04T04:36:02.958Z,24.46
2018-08-04T04:41:06.973Z,24.56
2018-08-04T04:46:10.913Z,24.64
2018-08-04T04:51:15.216Z,24.69
2018-08-04T04:56:18.798Z,24.60
2018-08-04T05:01:22.340Z,24.55
2018-08-04T05:06:25.878Z,24.72
2018-08-04T05:11:29.434Z,24.89
2018-08-04T05:16:33.011Z,25.02
2018-08-04T05:21:36.836Z,25.10
2018-08-04T05:26:40.525Z,25.13
2018-08-04T05:31:44.965Z,25.10
2018-08-04T05:36:48.414Z,25.16
2018-08-04T05:41:51.994Z,25.17
2018-08-04T05:46:55.657Z,25.25
2018-08-04T05:52:00.134Z,25.42
2018-08-04T05:57:03.764Z,25.50
2018-08-04T06:02:07.767Z,25.64
2018-08-04T06:07:11.263Z,25.88
2018-08-04T06:12:15.670Z,25.95
2018-08-04T06:17:23.196Z,26.10
2018-08-04T06:22:29.013Z,26.25
2018-08-04T06:27:37.153Z,26.42
2018-08-04T06:32:41.982Z,26.52
2018-08-04T06:37:47.836Z,26.57
2018-08-04T06:42:53.639Z,26.53
2018-08-04T06:47:58.144Z,26.56
2018-08-04T06:53:04.986Z,26.68
2018-08-04T06:58:10.101Z,26.76
2018-08-04T07:03:16.640Z,26.87
2018-08-04T07:08:20.306Z,27.00
2018-08-04T07:13:25.066Z,27.04
2018-08-04T07:18:28.877Z,27.17
2018-08-04T07:23:39.765Z,27.27
2018-08-04T07:28:43.354Z,27.40
2018-08-04T07:33:46.881Z,27.52
2018-08-04T07:38:50.470Z,27.61
2018-08-04T07:43:54.802Z,27.74
2018-08-04T07:48:58.777Z,27.86
2018-08-04T07:54:03.706Z,28.00
2018-08-04T07:59:13.516Z,28.14
2018-08-04T08:04:19.626Z,28.27
2018-08-04T08:09:29.087Z,28.37
2018-08-04T08:14:33.605Z,28.56
2018-08-04T08:19:37.202Z,28.65
2018-08-04T08:24:40.882Z,28.75
2018-08-04T08:29:44.517Z,28.89
2018-08-04T08:34:48.450Z,29.08
2018-08-04T08:39:52.117Z,29.22
2018-08-04T08:44:55.742Z,29.35
2018-08-04T08:49:59.281Z,29.45
2018-08-04T08:55:10.033Z,29.58
2018-08-04T09:00:14.679Z,29.69
2018-08-04T09:05:24.781Z,29.80
2018-08-04T09:10:28.398Z,29.91
2018-08-04T09:15:32.092Z,30.07
2018-08-04T09:20:36.334Z,30.23
2018-08-04T09:25:40.686Z,30.40
2018-08-04T09:30:45.729Z,30.47
2018-08-04T09:35:49.203Z,30.64
2018-08-04T09:40:52.710Z,30.84
2018-08-04T09:45:56.322Z,30.96
2018-08-04T09:50:59.842Z,31.05
2018-08-04T09:56:03.393Z,31.17
2018-08-04T10:01:12.779Z,31.25
2018-08-04T10:06:16.666Z,31.32
2018-08-04T10:11:26.335Z,31.55
2018-08-04T10:16:30.050Z,31.87
2018-08-04T10:21:34.495Z,32.31
2018-08-04T10:26:38.850Z,32.23
2018-08-04T10:31:53.470Z,32.28
2018-08-04T10:36:58.206Z,32.58
2018-08-04T10:42:02.402Z,32.86
2018-08-04T10:47:07.123Z,33.01
2018-08-04T10:52:11.314Z,32.95
2018-08-04T10:57:18.930Z,33.11
2018-08-04T11:08:04.083Z,33.28
2018-08-04T11:13:09.323Z,33.26
2018-08-04T11:18:17.825Z,33.48
2018-08-04T11:23:23.473Z,33.63
2018-08-04T11:28:27.445Z,33.75
2018-08-04T11:44:55.322Z,34.28
2018-08-04T11:49:59.349Z,34.85
2018-08-04T11:55:06.224Z,35.44
2018-08-04T12:00:10.535Z,39.91
2018-08-04T12:05:14.685Z,40.37
2018-08-04T12:10:18.642Z,41.48
2018-08-04T12:15:23.845Z,42.39
2018-08-04T12:20:27.756Z,43.08
2018-08-04T12:25:31.568Z,39.94
2018-08-04T12:30:35.252Z,37.40
2018-08-04T12:35:39.181Z,36.76
2018-08-04T12:40:42.838Z,37.56
2018-08-04T12:45:47.008Z,37.44
2018-08-04T12:50:51.173Z,35.22
2018-08-04T12:55:55.041Z,34.33
2018-08-04T13:00:58.759Z,34.09
2018-08-04T13:06:03.033Z,34.23
2018-08-04T13:11:06.869Z,35.39
2018-08-04T13:16:10.402Z,36.04
2018-08-04T13:21:14.258Z,36.58
2018-08-04T13:26:18.930Z,36.28
2018-08-04T13:31:22.693Z,36.61
2018-08-04T13:36:26.180Z,36.33
2018-08-04T13:41:30.618Z,35.68
2018-08-04T13:46:34.385Z,35.44
2018-08-04T13:51:38.554Z,34.85
2018-08-04T13:56:42.211Z,34.24
2018-08-04T14:01:45.915Z,34.04
2018-08-04T14:06:49.567Z,34.36
2018-08-04T14:11:53.046Z,34.92
2018-08-04T14:16:56.593Z,35.02
2018-08-04T14:22:00.187Z,34.80
2018-08-04T14:27:03.737Z,34.67
2018-08-04T14:32:07.324Z,34.38
2018-08-04T14:37:11.206Z,34.30
2018-08-04T14:42:14.939Z,34.11
2018-08-04T14:47:18.561Z,34.17
2018-08-04T14:52:22.168Z,34.31
2018-08-04T14:57:25.889Z,34.78
2018-08-04T15:02:29.854Z,35.86
2018-08-04T15:07:33.790Z,36.67
2018-08-04T15:12:38.191Z,37.11
2018-08-04T15:17:42.415Z,37.29
2018-08-04T15:22:47.242Z,37.32
2018-08-04T15:27:53.424Z,37.68
2018-08-04T15:32:57.446Z,38.14
2018-08-04T15:38:01.107Z,38.61
2018-08-04T15:43:04.824Z,39.06
2018-08-04T15:48:09.456Z,39.29
2018-08-04T15:53:13.743Z,39.62
2018-08-04T15:58:19.136Z,39.65
2018-08-04T16:03:22.915Z,39.42
2018-08-04T16:08:26.531Z,41.80
2018-08-04T16:13:30.518Z,44.59
2018-08-04T16:18:34.013Z,45.92
2018-08-04T16:23:37.964Z,47.13
2018-08-04T16:28:41.851Z,48.21
2018-08-04T16:33:45.596Z,46.11
2018-08-04T16:38:49.213Z,40.92
2018-08-04T16:43:52.831Z,38.89
2018-08-04T16:48:56.741Z,39.41
2018-08-04T16:54:00.607Z,37.59
2018-08-04T16:59:04.163Z,37.33
2018-08-04T17:04:08.098Z,38.73
2018-08-04T17:09:13.153Z,37.50
2018-08-04T17:14:16.825Z,37.17
2018-08-04T17:19:20.483Z,36.79
2018-08-04T17:24:24.398Z,38.21
2018-08-04T17:29:28.386Z,37.54
2018-08-04T17:34:32.850Z,36.48
2018-08-04T17:39:36.481Z,36.31
2018-08-04T17:44:40.068Z,36.71
2018-08-04T17:49:44.587Z,37.05
2018-08-04T17:54:48.303Z,35.23
2018-08-04T17:59:52.107Z,34.74
2018-08-04T18:04:55.925Z,33.97
2018-08-04T18:09:59.473Z,33.68
2018-08-04T18:15:08.854Z,33.41
2018-08-04T18:20:12.850Z,33.16
2018-08-04T18:25:16.467Z,33.60
2018-08-04T18:30:20.031Z,32.91
2018-08-04T18:35:23.498Z,32.39
2018-08-04T18:40:27.148Z,32.07
2018-08-04T18:45:30.686Z,31.81
2018-08-04T18:50:34.505Z,31.62
2018-08-04T18:55:38.007Z,31.45
2018-08-04T19:00:41.566Z,31.41
2018-08-04T19:05:45.046Z,31.15
2018-08-04T19:10:48.722Z,30.94
2018-08-04T19:15:52.218Z,30.95
2018-08-04T19:20:56.006Z,30.89
2018-08-04T19:25:59.895Z,30.72
2018-08-04T19:31:03.529Z,30.61
2018-08-04T19:36:07.068Z,30.49
2018-08-04T19:41:10.863Z,30.38
2018-08-04T19:46:14.930Z,30.37
2018-08-04T19:51:18.530Z,30.29
2018-08-04T19:56:22.971Z,30.17
2018-08-04T20:01:26.410Z,30.17
2018-08-04T20:06:30.106Z,30.21
2018-08-04T20:11:33.701Z,30.04
2018-08-04T20:16:37.282Z,29.83
2018-08-04T20:21:40.825Z,29.67
2018-08-04T20:26:44.398Z,29.59
2018-08-04T20:31:48.028Z,29.56
2018-08-04T20:36:51.568Z,29.40
2018-08-04T20:41:55.068Z,29.37
2018-08-04T20:46:58.590Z,29.31
2018-08-04T20:52:02.184Z,29.30
2018-08-04T20:57:05.802Z,29.27
2018-08-04T21:02:09.371Z,29.15
2018-08-04T21:07:13.275Z,29.06
2018-08-04T21:12:16.722Z,29.02
2018-08-04T21:17:20.930Z,29.07
2018-08-04T21:22:24.386Z,29.06
2018-08-04T21:27:28.423Z,28.95
2018-08-04T21:32:31.990Z,28.89
2018-08-04T21:37:35.490Z,28.94
2018-08-04T21:42:39.061Z,28.99
2018-08-04T21:47:42.645Z,28.90
2018-08-04T21:52:46.290Z,28.72
2018-08-04T21:57:49.800Z,28.56
2018-08-04T22:02:59.583Z,28.52
2018-08-04T22:08:14.238Z,28.24
2018-08-04T22:13:17.709Z,28.21
2018-08-04T22:18:21.329Z,28.05
2018-08-04T22:23:24.939Z,27.97
2018-08-04T22:28:28.511Z,27.86
2018-08-04T22:33:32.065Z,28.05
2018-08-04T22:38:35.631Z,28.08
2018-08-04T22:43:39.182Z,28.02
2018-08-04T22:48:44.985Z,27.94
2018-08-04T22:53:48.708Z,27.89
2018-08-04T22:58:52.216Z,27.77
2018-08-04T23:03:55.850Z,27.63
2018-08-04T23:08:59.390Z,27.59
2018-08-04T23:14:02.883Z,27.49
2018-08-04T23:19:07.075Z,27.47
2018-08-04T23:24:10.589Z,27.48
2018-08-04T23:29:15.334Z,27.29
2018-08-04T23:34:18.817Z,27.14
2018-08-04T23:39:22.391Z,27.21
2018-08-04T23:44:25.953Z,27.36
2018-08-04T23:49:29.483Z,27.48
2018-08-04T23:54:32.991Z,27.43
2018-08-04T23:59:36.530Z,27.33
